Time;durP1;ratioP1;P1;durP2;ratioP2;P2;SDS_P1;SDS_P2;PMS_P1;PMS_P2;Temp;Humidity;BMP_temperature;BMP_pressure;BME280_temperature;BME280_humidity;BME280_pressure;Samples;Min_cycle;Max_cycle;Signal;HPM_P1;HPM_P2
2022/08/24 00:03:40;;;;;;;8.90;4.30;;;;;;;;;;10360582;28;20050;-72
2022/08/24 00:08:45;;;;;;;7.85;3.70;;;;;;;;;;10356723;28;20053;-74
2022/08/24 00:13:48;;;;;;;6.65;3.88;;;;;;;;;;10363991;28;20072;-75
2022/08/24 00:18:50;;;;;;;5.33;3.63;;;;;;;;;;10365627;28;20068;-74
2022/08/24 00:23:54;;;;;;;6.43;3.53;;;;;;;;;;10362503;28;20120;-73
2022/08/24 00:28:57;;;;;;;7.03;3.97;;;;;;;;;;10361178;28;20046;-73
2022/08/24 00:34:00;;;;;;;7.37;3.90;;;;;;;;;;10363506;28;20061;-73
2022/08/24 00:39:05;;;;;;;8.33;3.90;;;;;;;;;;10357305;28;20412;-73
2022/08/24 00:44:09;;;;;;;8.50;3.13;;;;;;;;;;10358544;28;20121;-72
2022/08/24 00:49:15;;;;;;;6.55;3.58;;;;;;;;;;10356941;28;20407;-72
2022/08/24 00:54:19;;;;;;;7.53;3.42;;;;;;;;;;10362151;28;20073;-73
2022/08/24 00:59:23;;;;;;;3.25;2.03;;;;;;;;;;10371066;28;20077;-73
2022/08/24 01:04:28;;;;;;;5.95;3.17;;;;;;;;;;10372627;28;20551;-73
2022/08/24 01:09:32;;;;;;;7.22;3.60;;;;;;;;;;10353521;28;20045;-73
2022/08/24 01:14:35;;;;;;;5.32;3.45;;;;;;;;;;10377515;28;20121;-73
2022/08/24 01:19:38;;;;;;;4.40;3.43;;;;;;;;;;10356184;28;20252;-74
2022/08/24 01:24:43;;;;;;;7.07;3.78;;;;;;;;;;10372851;28;20382;-73
2022/08/24 01:29:50;;;;;;;5.60;3.90;;;;;;;;;;10372260;28;20046;-72
2022/08/24 01:34:52;;;;;;;5.63;3.63;;;;;;;;;;10371179;28;20087;-75
2022/08/24 01:39:57;;;;;;;7.23;4.10;;;;;;;;;;10371200;28;20124;-74
2022/08/24 01:45:01;;;;;;;5.80;3.90;;;;;;;;;;10370738;28;20038;-74
2022/08/24 01:50:04;;;;;;;7.57;4.17;;;;;;;;;;10373530;28;20057;-73
2022/08/24 01:55:15;;;;;;;6.72;3.95;;;;;;;;;;10374607;28;20092;-72
2022/08/24 02:00:24;;;;;;;7.88;4.22;;;;;;;;;;10375255;28;20113;-74
2022/08/24 02:05:27;;;;;;;5.75;3.90;;;;;;;;;;10373676;28;20458;-75
2022/08/24 02:10:32;;;;;;;8.07;3.72;;;;;;;;;;10372128;28;20064;-75
2022/08/24 02:15:38;;;;;;;7.22;3.65;;;;;;;;;;10371434;28;20066;-76
2022/08/24 02:20:42;;;;;;;6.13;3.70;;;;;;;;;;10364938;28;20064;-73
2022/08/24 02:25:46;;;;;;;7.40;4.07;;;;;;;;;;10367341;28;20065;-73
2022/08/24 02:30:49;;;;;;;8.20;4.15;;;;;;;;;;10363135;28;20068;-73
2022/08/24 02:35:53;;;;;;;6.80;3.92;;;;;;;;;;10373070;28;20108;-74
2022/08/24 02:40:57;;;;;;;7.05;3.80;;;;;;;;;;10362293;28;20046;-73
2022/08/24 02:46:00;;;;;;;8.57;3.90;;;;;;;;;;10368026;28;20164;-72
2022/08/24 02:51:03;;;;;;;5.05;3.80;;;;;;;;;;10362924;28;20491;-73
2022/08/24 02:56:08;;;;;;;5.35;3.63;;;;;;;;;;10365854;28;20596;-73
2022/08/24 03:01:11;;;;;;;7.75;3.75;;;;;;;;;;10359253;28;20073;-72
2022/08/24 03:06:19;;;;;;;6.20;3.58;;;;;;;;;;10362747;28;20061;-73
2022/08/24 03:11:24;;;;;;;5.37;3.90;;;;;;;;;;10372492;28;20459;-73
2022/08/24 03:16:30;;;;;;;5.25;3.40;;;;;;;;;;10358844;28;20038;-74
2022/08/24 03:21:33;;;;;;;6.32;3.50;;;;;;;;;;10364592;28;20113;-72
2022/08/24 03:26:37;;;;;;;4.78;3.17;;;;;;;;;;10342494;28;20074;-73
2022/08/24 03:31:46;;;;;;;4.60;2.88;;;;;;;;;;10368424;28;20042;-72
2022/08/24 03:36:48;;;;;;;4.53;3.17;;;;;;;;;;10360065;28;20042;-72
2022/08/24 03:41:53;;;;;;;6.15;2.60;;;;;;;;;;10367530;28;20034;-73
2022/08/24 03:46:55;;;;;;;5.05;3.42;;;;;;;;;;10361141;28;20040;-72
2022/08/24 03:51:59;;;;;;;5.13;3.22;;;;;;;;;;10365699;28;20119;-74
2022/08/24 03:57:05;;;;;;;4.88;3.30;;;;;;;;;;10359372;28;20065;-72
2022/08/24 04:02:08;;;;;;;6.57;3.45;;;;;;;;;;10361950;28;20076;-72
2022/08/24 04:07:14;;;;;;;6.53;3.30;;;;;;;;;;10364463;28;20034;-73
2022/08/24 04:12:19;;;;;;;5.00;3.35;;;;;;;;;;10345446;28;20038;-72
2022/08/24 04:17:24;;;;;;;6.13;3.65;;;;;;;;;;10355456;28;20097;-73
2022/08/24 04:22:28;;;;;;;5.82;3.88;;;;;;;;;;10359882;28;20148;-72
2022/08/24 04:27:32;;;;;;;6.50;4.15;;;;;;;;;;10353905;28;20034;-73
2022/08/24 04:32:35;;;;;;;5.65;3.70;;;;;;;;;;10356150;28;20134;-72
2022/08/24 04:37:39;;;;;;;7.47;4.53;;;;;;;;;;10361635;28;20049;-73
2022/08/24 04:42:43;;;;;;;8.65;4.60;;;;;;;;;;10355741;28;20137;-73
2022/08/24 04:47:45;;;;;;;12.05;4.78;;;;;;;;;;10364434;28;20044;-72
2022/08/24 04:52:48;;;;;;;8.50;4.65;;;;;;;;;;10361738;28;20077;-72
2022/08/24 04:57:52;;;;;;;6.97;4.50;;;;;;;;;;10363006;28;20042;-73
2022/08/24 05:02:56;;;;;;;9.57;5.15;;;;;;;;;;10363565;28;20396;-73
2022/08/24 05:07:59;;;;;;;7.55;4.85;;;;;;;;;;10360504;28;20034;-73
2022/08/24 05:13:03;;;;;;;9.20;4.60;;;;;;;;;;10357490;28;20045;-75
2022/08/24 05:18:06;;;;;;;8.23;4.47;;;;;;;;;;10357107;28;20104;-73
2022/08/24 05:23:09;;;;;;;6.75;4.50;;;;;;;;;;10356698;28;20038;-74
2022/08/24 05:28:14;;;;;;;7.03;4.68;;;;;;;;;;10342632;28;20050;-75
2022/08/24 05:33:16;;;;;;;6.97;4.05;;;;;;;;;;10357143;28;20297;-74
2022/08/24 05:38:19;;;;;;;7.38;4.00;;;;;;;;;;10362985;28;20808;-74
2022/08/24 05:43:23;;;;;;;10.02;4.28;;;;;;;;;;10344876;28;20426;-73
2022/08/24 05:48:26;;;;;;;8.88;3.92;;;;;;;;;;10362273;28;20073;-74
2022/08/24 05:53:29;;;;;;;6.68;4.00;;;;;;;;;;10356979;28;20057;-73
2022/08/24 05:58:36;;;;;;;7.90;4.35;;;;;;;;;;10359790;28;20045;-73
2022/08/24 06:03:39;;;;;;;7.13;4.00;;;;;;;;;;10358278;28;20422;-74
2022/08/24 06:08:44;;;;;;;8.27;4.03;;;;;;;;;;10366008;28;20033;-73
2022/08/24 06:13:48;;;;;;;6.25;3.92;;;;;;;;;;10335733;28;20105;-73
2022/08/24 06:18:58;;;;;;;6.63;4.20;;;;;;;;;;10355153;28;20508;-74
2022/08/24 06:24:01;;;;;;;6.05;3.58;;;;;;;;;;10352533;28;20116;-73
2022/08/24 06:29:06;;;;;;;4.80;3.60;;;;;;;;;;10352962;28;20467;-75
2022/08/24 06:34:09;;;;;;;4.45;3.28;;;;;;;;;;10358811;28;20478;-73
2022/08/24 06:39:12;;;;;;;6.82;3.35;;;;;;;;;;10353287;28;20320;-73
2022/08/24 06:44:18;;;;;;;6.32;3.65;;;;;;;;;;10355550;28;20065;-73
2022/08/24 06:49:20;;;;;;;6.63;3.45;;;;;;;;;;10351090;28;20058;-74
2022/08/24 06:54:23;;;;;;;4.90;3.47;;;;;;;;;;10353506;28;20140;-73
2022/08/24 06:59:28;;;;;;;6.97;3.27;;;;;;;;;;10356448;28;20101;-73
2022/08/24 07:04:31;;;;;;;5.50;3.10;;;;;;;;;;10340913;28;20045;-73
2022/08/24 07:09:34;;;;;;;3.58;2.75;;;;;;;;;;10331239;28;20121;-74
2022/08/24 07:14:38;;;;;;;3.83;2.88;;;;;;;;;;10355005;28;20046;-73
2022/08/24 07:19:41;;;;;;;6.10;2.65;;;;;;;;;;10349568;28;20042;-73
2022/08/24 07:24:44;;;;;;;2.85;2.45;;;;;;;;;;10355634;28;20038;-73
2022/08/24 07:29:48;;;;;;;6.38;3.00;;;;;;;;;;10348501;28;20408;-73
2022/08/24 07:35:11;;;;;;;4.75;2.90;;;;;;;;;;10355489;28;20049;-73
2022/08/24 07:40:14;;;;;;;4.00;2.75;;;;;;;;;;10347535;28;20398;-75
2022/08/24 07:45:18;;;;;;;6.03;3.10;;;;;;;;;;10353164;28;20042;-77
2022/08/24 07:50:21;;;;;;;4.60;2.92;;;;;;;;;;10327913;28;20048;-80
2022/08/24 07:55:24;;;;;;;5.25;3.08;;;;;;;;;;10348626;28;20056;-77
2022/08/24 08:00:28;;;;;;;4.40;2.80;;;;;;;;;;10347023;28;20129;-76
2022/08/24 08:05:31;;;;;;;4.68;2.90;;;;;;;;;;10346386;28;20369;-74
2022/08/24 08:10:35;;;;;;;4.97;3.20;;;;;;;;;;10342839;28;20506;-72
2022/08/24 08:15:40;;;;;;;5.72;3.00;;;;;;;;;;10348283;28;20473;-71
2022/08/24 08:20:43;;;;;;;3.70;2.92;;;;;;;;;;10353364;28;20042;-72
2022/08/24 08:25:47;;;;;;;4.53;3.08;;;;;;;;;;10351775;28;20133;-70
2022/08/24 08:30:52;;;;;;;3.53;2.95;;;;;;;;;;10354643;28;20121;-71
2022/08/24 08:36:02;;;;;;;3.95;2.97;;;;;;;;;;10354717;28;20038;-70
2022/08/24 08:41:06;;;;;;;;;;;;;;;;;;10350950;28;20065;-70
2022/08/24 08:46:17;;;;;;;3.42;2.47;;;;;;;;;;10350666;28;20295;-71
2022/08/24 08:51:35;;;;;;;3.10;2.80;;;;;;;;;;10346218;28;20136;-72
2022/08/24 08:56:42;;;;;;;5.03;3.00;;;;;;;;;;10354907;28;20044;-72
2022/08/24 09:01:52;;;;;;;3.88;2.90;;;;;;;;;;10352028;28;20438;-74
2022/08/24 09:07:03;;;;;;;3.03;2.70;;;;;;;;;;10347655;28;20038;-72
2022/08/24 09:12:13;;;;;;;4.00;2.70;;;;;;;;;;10353020;28;20069;-72
2022/08/24 09:17:23;;;;;;;3.50;3.20;;;;;;;;;;10353360;28;20456;-71
2022/08/24 09:22:25;;;;;;;;;;;;;;;;;;10358770;28;20415;-72
2022/08/24 09:27:35;;;;;;;3.70;2.88;;;;;;;;;;10358786;28;19928;-74
2022/08/24 09:32:53;;;;;;;4.55;2.65;;;;;;;;;;10353343;28;20101;-72
2022/08/24 09:37:59;;;;;;;4.95;3.20;;;;;;;;;;10334125;28;20038;-72
2022/08/24 09:43:19;;;;;;;5.47;2.88;;;;;;;;;;10356362;28;20458;-72
2022/08/24 09:48:50;;;;;;;7.38;3.30;;;;;;;;;;10357741;28;20049;-72
2022/08/24 09:54:16;;;;;;;18.98;6.47;;;;;;;;;;10358085;28;20049;-72
2022/08/24 09:59:24;;;;;;;3.47;3.17;;;;;;;;;;10356776;28;20061;-72
2022/08/24 10:04:32;;;;;;;7.47;4.13;;;;;;;;;;10357934;28;20069;-73
2022/08/24 10:09:53;;;;;;;6.77;3.33;;;;;;;;;;10355938;28;20076;-72
2022/08/24 10:15:03;;;;;;;3.55;3.25;;;;;;;;;;10356740;28;20045;-72
2022/08/24 10:20:12;;;;;;;5.70;3.13;;;;;;;;;;10358914;28;20038;-73
2022/08/24 10:25:23;;;;;;;4.80;3.30;;;;;;;;;;10353225;28;20050;-72
2022/08/24 10:30:41;;;;;;;4.55;3.22;;;;;;;;;;10355658;28;20076;-72
2022/08/24 10:35:52;;;;;;;3.80;3.40;;;;;;;;;;10357697;28;20447;-72
2022/08/24 10:41:04;;;;;;;4.10;3.13;;;;;;;;;;10352538;28;20052;-72
2022/08/24 10:46:25;;;;;;;4.50;4.10;;;;;;;;;;10353057;28;20115;-71
2022/08/24 10:51:34;;;;;;;4.82;3.35;;;;;;;;;;10358275;28;20127;-72
2022/08/24 10:56:40;;;;;;;4.68;3.22;;;;;;;;;;10353353;28;20076;-71
2022/08/24 11:01:58;;;;;;;4.43;3.80;;;;;;;;;;10354770;28;20034;-72
2022/08/24 11:07:16;;;;;;;4.93;3.40;;;;;;;;;;10357641;28;20046;-72
2022/08/24 11:12:23;;;;;;;3.97;3.33;;;;;;;;;;10355123;28;20096;-71
2022/08/24 11:17:27;;;;;;;3.58;3.28;;;;;;;;;;10356445;28;20138;-70
2022/08/24 11:22:35;;;;;;;3.63;3.33;;;;;;;;;;10351747;28;20454;-73
2022/08/24 11:27:39;;;;;;;5.78;3.22;;;;;;;;;;10331427;28;20134;-71
2022/08/24 11:32:43;;;;;;;5.10;3.05;;;;;;;;;;10332200;28;20042;-71
2022/08/24 11:37:48;;;;;;;3.45;3.15;;;;;;;;;;10351514;28;20188;-72
2022/08/24 11:43:06;;;;;;;3.22;3.03;;;;;;;;;;10350234;28;20503;-71
2022/08/24 11:48:16;;;;;;;3.30;2.97;;;;;;;;;;10346097;28;20665;-73
2022/08/24 11:53:25;;;;;;;7.78;2.80;;;;;;;;;;10356634;28;20545;-73
2022/08/24 11:58:35;;;;;;;5.32;3.22;;;;;;;;;;10351976;28;20085;-74
2022/08/24 12:03:43;;;;;;;4.50;2.90;;;;;;;;;;10348320;28;20044;-73
2022/08/24 12:08:50;;;;;;;3.45;2.70;;;;;;;;;;10338416;28;20061;-73
2022/08/24 12:13:56;;;;;;;3.05;2.72;;;;;;;;;;10347806;28;20100;-71
2022/08/24 12:19:11;;;;;;;4.68;3.22;;;;;;;;;;10346288;28;20037;-73
2022/08/24 12:24:26;;;;;;;2.97;2.75;;;;;;;;;;10351042;28;20145;-74
2022/08/24 12:29:42;;;;;;;3.05;2.60;;;;;;;;;;10350801;28;20034;-73
2022/08/24 12:34:48;;;;;;;3.00;2.70;;;;;;;;;;10356486;28;20049;-73
2022/08/24 12:40:07;;;;;;;4.10;3.00;;;;;;;;;;10349491;28;20076;-72
2022/08/24 12:45:13;;;;;;;3.30;1.95;;;;;;;;;;10347636;28;20038;-73
2022/08/24 12:50:22;;;;;;;3.35;2.60;;;;;;;;;;10348197;28;20042;-72
2022/08/24 12:55:55;;;;;;;3.83;2.70;;;;;;;;;;10358677;28;20089;-73
2022/08/24 13:01:03;;;;;;;2.38;1.80;;;;;;;;;;10347523;28;20066;-73
2022/08/24 13:06:11;;;;;;;3.55;2.50;;;;;;;;;;10347060;28;20467;-74
2022/08/24 13:11:27;;;;;;;2.60;2.40;;;;;;;;;;10347591;28;20599;-73
2022/08/24 13:16:47;;;;;;;3.65;2.35;;;;;;;;;;10348933;28;20042;-73
2022/08/24 13:21:52;;;;;;;2.60;2.35;;;;;;;;;;10346104;28;20041;-73
2022/08/24 13:26:57;;;;;;;2.55;2.33;;;;;;;;;;10349861;28;20060;-74
2022/08/24 13:32:00;;;;;;;2.40;2.20;;;;;;;;;;10349830;28;20042;-73
2022/08/24 13:37:14;;;;;;;2.90;2.10;;;;;;;;;;10350859;28;20037;-72
2022/08/24 13:42:34;;;;;;;3.30;2.13;;;;;;;;;;10350258;28;20140;-73
2022/08/24 13:47:49;;;;;;;3.42;2.03;;;;;;;;;;10346244;28;20081;-73
2022/08/24 13:53:08;;;;;;;4.05;2.10;;;;;;;;;;10348184;28;20092;-73
2022/08/24 13:58:24;;;;;;;5.15;2.05;;;;;;;;;;10349087;28;20483;-75
2022/08/24 14:03:50;;;;;;;2.40;1.80;;;;;;;;;;10347837;28;20095;-74
2022/08/24 14:08:59;;;;;;;2.13;1.73;;;;;;;;;;10359821;28;20121;-73
2022/08/24 14:14:05;;;;;;;3.83;1.90;;;;;;;;;;10359651;28;20065;-73
2022/08/24 14:19:16;;;;;;;3.53;1.92;;;;;;;;;;10358406;28;20034;-73
2022/08/24 14:24:24;;;;;;;2.20;2.00;;;;;;;;;;10360721;28;20037;-73
2022/08/24 14:29:29;;;;;;;2.88;1.77;;;;;;;;;;10357449;28;20091;-73
2022/08/24 14:34:43;;;;;;;3.08;2.20;;;;;;;;;;10359403;28;20046;-73
2022/08/24 14:39:54;;;;;;;1.90;1.80;;;;;;;;;;10355181;28;20037;-73
2022/08/24 14:45:03;;;;;;;3.20;2.00;;;;;;;;;;10361154;28;20166;-73
2022/08/24 14:50:14;;;;;;;3.45;2.28;;;;;;;;;;10357579;28;20107;-73
2022/08/24 14:55:21;;;;;;;2.85;2.08;;;;;;;;;;10360329;28;20113;-71
2022/08/24 15:00:26;;;;;;;7.10;4.53;;;;;;;;;;10359695;28;20402;-72
2022/08/24 15:05:36;;;;;;;2.67;2.05;;;;;;;;;;10353033;28;20045;-72
2022/08/24 15:10:43;;;;;;;2.65;1.95;;;;;;;;;;10359195;28;20658;-72
2022/08/24 15:15:51;;;;;;;2.35;1.95;;;;;;;;;;10363608;28;20061;-71
2022/08/24 15:21:00;;;;;;;2.38;1.80;;;;;;;;;;10357562;28;20045;-73
2022/08/24 15:26:07;;;;;;;2.10;1.80;;;;;;;;;;10352157;28;20389;-72
2022/08/24 15:31:11;;;;;;;2.65;2.00;;;;;;;;;;10355637;28;20121;-73
2022/08/24 15:36:16;;;;;;;3.78;1.80;;;;;;;;;;10362392;28;20034;-72
2022/08/24 15:41:20;;;;;;;2.13;1.67;;;;;;;;;;10356132;28;20038;-73
2022/08/24 15:46:26;;;;;;;4.68;2.10;;;;;;;;;;10358605;28;20056;-72
2022/08/24 15:51:36;;;;;;;2.88;1.70;;;;;;;;;;10354770;28;20096;-73
2022/08/24 15:56:43;;;;;;;3.60;1.92;;;;;;;;;;10358487;28;20061;-74
2022/08/24 16:07:22;;;;;;;3.95;2.00;;;;;;;;;;10357164;28;20057;-71
2022/08/24 16:12:45;;;;;;;6.07;1.85;;;;;;;;;;10350838;28;20042;-72
2022/08/24 16:17:49;;;;;;;2.42;1.63;;;;;;;;;;10336697;28;20048;-72
2022/08/24 16:22:55;;;;;;;1.88;1.67;;;;;;;;;;10352181;28;20537;-72
2022/08/24 16:28:04;;;;;;;2.05;1.70;;;;;;;;;;10349615;28;20050;-72
2022/08/24 16:33:31;;;;;;;3.13;1.80;;;;;;;;;;10350993;28;20510;-73
2022/08/24 16:38:36;;;;;;;3.17;1.70;;;;;;;;;;10353450;28;20451;-73
2022/08/24 16:43:40;;;;;;;2.10;1.67;;;;;;;;;;10342104;28;20068;-73
2022/08/24 16:48:43;;;;;;;1.83;1.58;;;;;;;;;;10359478;28;20447;-73
2022/08/24 16:53:47;;;;;;;2.92;2.00;;;;;;;;;;10358434;28;20157;-73
2022/08/24 16:58:50;;;;;;;4.55;1.90;;;;;;;;;;10351820;28;20538;-72
2022/08/24 17:03:53;;;;;;;6.35;2.20;;;;;;;;;;10360500;28;20057;-72
2022/08/24 17:08:58;;;;;;;2.85;1.95;;;;;;;;;;10351044;28;20065;-73
2022/08/24 17:14:00;;;;;;;2.88;1.67;;;;;;;;;;10358170;28;20133;-72
2022/08/24 17:19:05;;;;;;;2.53;1.90;;;;;;;;;;10353754;28;20046;-71
2022/08/24 17:24:10;;;;;;;4.18;2.17;;;;;;;;;;10364419;28;20076;-74
2022/08/24 17:29:14;;;;;;;2.80;1.85;;;;;;;;;;10357680;28;20276;-72
2022/08/24 17:34:20;;;;;;;2.83;1.77;;;;;;;;;;10354814;28;20129;-71
2022/08/24 17:39:24;;;;;;;2.45;1.85;;;;;;;;;;10355423;28;20040;-71
2022/08/24 17:44:28;;;;;;;4.22;2.05;;;;;;;;;;10364066;28;20109;-72
2022/08/24 17:49:33;;;;;;;3.25;1.75;;;;;;;;;;10360954;28;20133;-71
2022/08/24 17:54:37;;;;;;;6.28;2.38;;;;;;;;;;10362964;28;20048;-72
2022/08/24 17:59:40;;;;;;;5.65;2.20;;;;;;;;;;10357397;28;20065;-72
2022/08/24 18:04:42;;;;;;;2.92;2.05;;;;;;;;;;10367537;28;20493;-72
2022/08/24 18:09:49;;;;;;;4.22;2.03;;;;;;;;;;10352271;28;20045;-73
2022/08/24 18:15:01;;;;;;;3.17;1.88;;;;;;;;;;10356889;28;20140;-72
2022/08/24 18:20:06;;;;;;;4.18;2.20;;;;;;;;;;10357475;28;20383;-73
2022/08/24 18:25:11;;;;;;;4.32;2.15;;;;;;;;;;10356320;28;20046;-76
2022/08/24 18:30:19;;;;;;;4.22;2.35;;;;;;;;;;10355781;28;20041;-74
2022/08/24 18:35:34;;;;;;;4.25;2.40;;;;;;;;;;10364142;28;20131;-74
2022/08/24 18:40:39;;;;;;;3.05;2.00;;;;;;;;;;10356831;28;20041;-73
2022/08/24 18:46:04;;;;;;;4.40;2.20;;;;;;;;;;10358176;28;20049;-74
2022/08/24 18:51:07;;;;;;;5.10;2.20;;;;;;;;;;10365835;28;20038;-73
2022/08/24 18:56:12;;;;;;;6.47;2.50;;;;;;;;;;10355556;28;20042;-74
2022/08/24 19:01:15;;;;;;;3.72;2.08;;;;;;;;;;10350255;28;20062;-74
2022/08/24 19:06:18;;;;;;;;;;;;;;;;;;10365193;28;20042;-74
2022/08/24 19:11:23;;;;;;;5.63;2.38;;;;;;;;;;10359689;28;20028;-75
2022/08/24 19:16:26;;;;;;;5.82;2.83;;;;;;;;;;10359935;28;20076;-74
2022/08/24 19:21:30;;;;;;;4.65;2.90;;;;;;;;;;10357697;28;20052;-74
2022/08/24 19:26:35;;;;;;;5.10;2.25;;;;;;;;;;10360944;28;20471;-75
2022/08/24 19:31:39;;;;;;;4.57;2.20;;;;;;;;;;10351444;28;20530;-76
2022/08/24 19:36:42;;;;;;;5.72;2.35;;;;;;;;;;10350859;28;20046;-76
2022/08/24 19:41:47;;;;;;;4.97;2.63;;;;;;;;;;10354260;28;20116;-74
2022/08/24 19:46:51;;;;;;;6.10;2.40;;;;;;;;;;10360274;28;20514;-75
2022/08/24 19:51:54;;;;;;;3.47;2.10;;;;;;;;;;10359765;28;20104;-75
2022/08/24 19:56:58;;;;;;;3.72;2.30;;;;;;;;;;10351323;28;20038;-75
2022/08/24 20:02:02;;;;;;;4.55;2.17;;;;;;;;;;10365105;28;20125;-75
2022/08/24 20:07:07;;;;;;;3.20;2.00;;;;;;;;;;10358530;28;20080;-75
2022/08/24 20:12:12;;;;;;;3.85;2.28;;;;;;;;;;10339807;28;20105;-75
2022/08/24 20:17:15;;;;;;;2.95;1.73;;;;;;;;;;10359274;28;20430;-78
2022/08/24 20:22:18;;;;;;;4.40;2.30;;;;;;;;;;10340901;28;20034;-73
2022/08/24 20:27:23;;;;;;;4.25;2.22;;;;;;;;;;10356946;28;20073;-75
2022/08/24 20:32:27;;;;;;;3.30;2.13;;;;;;;;;;10351349;28;20038;-75
2022/08/24 20:37:32;;;;;;;5.55;2.30;;;;;;;;;;10356379;28;20049;-73
2022/08/24 20:42:37;;;;;;;4.03;2.20;;;;;;;;;;10348079;28;20129;-73
2022/08/24 20:47:51;;;;;;;4.70;2.50;;;;;;;;;;10363152;28;20474;-72
2022/08/24 20:52:57;;;;;;;4.88;2.70;;;;;;;;;;10360883;28;20137;-72
2022/08/24 20:58:12;;;;;;;4.03;2.50;;;;;;;;;;10364003;28;20034;-72
2022/08/24 21:03:17;;;;;;;3.90;2.28;;;;;;;;;;10362380;28;20332;-71
2022/08/24 21:08:20;;;;;;;5.00;2.55;;;;;;;;;;10358871;28;20050;-71
2022/08/24 21:13:35;;;;;;;5.40;2.45;;;;;;;;;;10362799;28;20034;-72
2022/08/24 21:18:48;;;;;;;5.85;2.42;;;;;;;;;;10364493;28;20129;-71
2022/08/24 21:23:51;;;;;;;6.05;2.47;;;;;;;;;;10367254;28;20467;-72
2022/08/24 21:28:56;;;;;;;5.70;2.70;;;;;;;;;;10359281;28;20108;-72
2022/08/24 21:39:21;;;;;;;4.55;2.58;;;;;;;;;;10358899;28;20057;-71
2022/08/24 21:44:25;;;;;;;6.95;2.78;;;;;;;;;;10367052;28;20052;-72
2022/08/24 21:49:28;;;;;;;4.63;2.53;;;;;;;;;;10365457;28;20049;-73
2022/08/24 21:54:30;;;;;;;4.70;2.80;;;;;;;;;;10372072;28;20604;-73
2022/08/24 21:59:35;;;;;;;4.38;2.83;;;;;;;;;;10366428;28;20050;-72
2022/08/24 22:04:37;;;;;;;6.78;2.88;;;;;;;;;;10363883;28;20050;-72
2022/08/24 22:09:40;;;;;;;5.37;2.87;;;;;;;;;;10345858;28;20140;-72
2022/08/24 22:14:45;;;;;;;6.35;3.00;;;;;;;;;;10367995;28;20329;-72
2022/08/24 22:19:47;;;;;;;6.03;3.05;;;;;;;;;;10367114;28;20137;-72
2022/08/24 22:24:50;;;;;;;5.97;3.50;;;;;;;;;;10371222;28;20059;-73
2022/08/24 22:29:56;;;;;;;11.48;3.10;;;;;;;;;;10368324;28;20376;-74
2022/08/24 22:34:59;;;;;;;6.82;3.50;;;;;;;;;;10372292;28;20565;-72
2022/08/24 22:40:04;;;;;;;6.07;3.30;;;;;;;;;;10362737;28;20483;-73
2022/08/24 22:45:15;;;;;;;5.65;3.28;;;;;;;;;;10368080;28;20491;-73
2022/08/24 22:50:18;;;;;;;7.95;3.53;;;;;;;;;;10367436;28;20480;-73
2022/08/24 22:55:21;;;;;;;6.35;3.45;;;;;;;;;;10373849;28;20072;-74
2022/08/24 23:00:26;;;;;;;8.07;3.45;;;;;;;;;;10364881;28;20038;-75
2022/08/24 23:05:38;;;;;;;6.82;3.53;;;;;;;;;;10370160;28;20170;-72
2022/08/24 23:10:40;;;;;;;6.22;3.45;;;;;;;;;;10366412;28;20181;-73
2022/08/24 23:15:45;;;;;;;8.25;3.88;;;;;;;;;;10366565;28;20053;-72
2022/08/24 23:20:48;;;;;;;10.48;4.30;;;;;;;;;;10366620;28;20056;-72
2022/08/24 23:25:51;;;;;;;9.45;4.45;;;;;;;;;;10362425;28;20053;-72
2022/08/24 23:30:55;;;;;;;8.93;3.90;;;;;;;;;;10367803;28;20125;-72
2022/08/24 23:35:58;;;;;;;6.75;3.47;;;;;;;;;;10365011;28;20065;-72
2022/08/24 23:41:04;;;;;;;7.43;3.78;;;;;;;;;;10361721;28;20096;-73
2022/08/24 23:46:09;;;;;;;7.65;3.88;;;;;;;;;;10360688;28;20124;-72
2022/08/24 23:51:14;;;;;;;7.90;4.00;;;;;;;;;;10364422;28;20038;-72
2022/08/24 23:56:17;;;;;;;7.60;4.07;;;;;;;;;;10361889;28;20118;-72
